createdAt,value
2022-12-04T00:05:25.678Z,100
2022-12-04T00:11:25.651Z,100
2022-12-04T00:17:25.675Z,100
2022-12-04T00:23:25.702Z,100
2022-12-04T00:29:25.676Z,100
2022-12-04T00:35:25.658Z,100
2022-12-04T00:41:25.691Z,99.6
2022-12-04T00:47:25.636Z,99.4
2022-12-04T00:53:25.659Z,99.4
2022-12-04T00:59:25.728Z,98.8
2022-12-04T01:05:25.706Z,98
2022-12-04T01:11:25.655Z,97.2
2022-12-04T01:17:25.677Z,97.8
2022-12-04T01:23:25.664Z,96.3
2022-12-04T01:29:25.655Z,96.2
2022-12-04T01:35:25.671Z,96.1
2022-12-04T01:41:25.645Z,96.5
2022-12-04T01:47:25.657Z,96.6
2022-12-04T01:53:25.687Z,96.5
2022-12-04T01:59:25.629Z,97
2022-12-04T02:05:25.655Z,95.9
2022-12-04T02:11:25.663Z,96.9
2022-12-04T02:17:25.641Z,96.5
2022-12-04T02:23:25.643Z,96.7
2022-12-04T02:29:25.672Z,96.4
2022-12-04T02:35:25.636Z,96.1
2022-12-04T02:41:25.648Z,95.7
2022-12-04T02:47:25.701Z,95.8
2022-12-04T02:53:25.657Z,96.6
2022-12-04T02:59:25.644Z,96.6
2022-12-04T03:05:25.658Z,96.8
2022-12-04T03:11:25.632Z,97.2
2022-12-04T03:17:25.633Z,97.7
2022-12-04T03:23:25.651Z,97
2022-12-04T03:29:25.627Z,97.2
2022-12-04T03:35:25.629Z,97
2022-12-04T03:41:25.631Z,96.9
2022-12-04T03:47:25.624Z,97
2022-12-04T03:53:25.635Z,97.2
2022-12-04T03:59:25.626Z,97.1
2022-12-04T04:05:25.630Z,97.1
2022-12-04T04:11:25.617Z,96.8
2022-12-04T04:17:25.658Z,96.6
2022-12-04T04:23:25.629Z,97.4
2022-12-04T04:29:25.622Z,97.7
2022-12-04T04:35:25.635Z,98.3
2022-12-04T04:41:25.597Z,97.8
2022-12-04T04:47:25.634Z,97.2
2022-12-04T04:53:25.621Z,98
2022-12-04T04:59:25.606Z,97.3
2022-12-04T05:05:25.606Z,97.9
2022-12-04T05:11:25.619Z,98
2022-12-04T05:17:25.614Z,97.7
2022-12-04T05:23:25.603Z,98.9
2022-12-04T05:29:25.626Z,99.7
2022-12-04T05:35:25.589Z,99.6
2022-12-04T05:41:25.631Z,99.4
2022-12-04T05:47:25.602Z,98.9
2022-12-04T05:53:25.598Z,99.3
2022-12-04T05:59:25.592Z,98.9
2022-12-04T06:05:25.593Z,99.7
2022-12-04T06:11:25.598Z,100
2022-12-04T06:17:25.599Z,100
2022-12-04T06:23:25.619Z,100
2022-12-04T06:29:25.587Z,100
2022-12-04T06:35:25.613Z,100
2022-12-04T06:41:25.780Z,100
2022-12-04T06:47:25.585Z,99.9
2022-12-04T06:53:25.577Z,98.7
2022-12-04T06:59:25.622Z,99.1
2022-12-04T07:05:25.573Z,100
2022-12-04T07:11:25.697Z,100
2022-12-04T07:17:25.637Z,100
2022-12-04T07:23:25.593Z,100
2022-12-04T07:29:25.586Z,100
2022-12-04T07:35:25.611Z,100
2022-12-04T07:41:25.563Z,100
2022-12-04T07:47:25.568Z,100
2022-12-04T07:53:25.684Z,100
2022-12-04T07:59:25.558Z,100
2022-12-04T08:05:25.569Z,100
2022-12-04T08:11:25.600Z,100
2022-12-04T08:17:25.680Z,100
2022-12-04T08:23:25.580Z,100
2022-12-04T08:29:25.589Z,100
2022-12-04T08:35:25.586Z,100
2022-12-04T08:41:25.571Z,100
2022-12-04T08:47:25.562Z,100
2022-12-04T08:53:25.549Z,100
2022-12-04T08:59:25.577Z,100
2022-12-04T09:05:25.559Z,100
2022-12-04T09:11:25.568Z,100
2022-12-04T09:17:25.553Z,100
2022-12-04T09:23:25.566Z,100
2022-12-04T09:29:25.541Z,99.6
2022-12-04T09:35:25.569Z,99.7
2022-12-04T09:41:25.552Z,100
2022-12-04T09:47:25.538Z,99.2
2022-12-04T09:53:25.558Z,98.8
2022-12-04T09:59:25.551Z,99.1
2022-12-04T10:05:25.527Z,98.1
2022-12-04T10:11:31.983Z,98.8
2022-12-04T10:17:32.270Z,99.8
2022-12-04T10:23:25.551Z,99.9
2022-12-04T10:29:25.560Z,100
2022-12-04T10:35:25.550Z,100
2022-12-04T10:41:25.540Z,99.4
2022-12-04T10:47:25.533Z,100
2022-12-04T10:53:25.540Z,99.4
2022-12-04T10:59:25.540Z,99.8
2022-12-04T11:05:25.527Z,100
2022-12-04T11:11:25.553Z,100
2022-12-04T11:17:25.529Z,100
2022-12-04T11:23:25.504Z,100
2022-12-04T11:29:25.639Z,100
2022-12-04T11:35:25.526Z,100
2022-12-04T11:41:25.539Z,100
2022-12-04T11:47:25.561Z,100
2022-12-04T11:53:25.527Z,100
2022-12-04T11:59:25.533Z,100
2022-12-04T12:05:25.560Z,100
2022-12-04T12:11:25.522Z,100
2022-12-04T12:17:25.503Z,99.7
2022-12-04T12:23:25.535Z,100
2022-12-04T12:29:25.516Z,100
2022-12-04T12:35:25.494Z,100
2022-12-04T12:41:25.538Z,100
2022-12-04T12:47:25.505Z,98.7
2022-12-04T12:53:25.513Z,98.9
2022-12-04T12:59:25.543Z,100
2022-12-04T13:05:25.505Z,100
2022-12-04T13:11:25.511Z,100
2022-12-04T13:17:25.569Z,100
2022-12-04T13:23:25.505Z,100
2022-12-04T13:29:25.504Z,100
2022-12-04T13:35:25.516Z,100
2022-12-04T13:41:25.502Z,100
2022-12-04T13:47:25.523Z,100
2022-12-04T13:53:25.527Z,100
2022-12-04T13:59:25.511Z,100
2022-12-04T14:05:25.495Z,100
2022-12-04T14:11:25.523Z,100
2022-12-04T14:17:25.538Z,100
2022-12-04T14:23:25.482Z,100
2022-12-04T14:29:25.512Z,100
2022-12-04T14:35:25.519Z,100
2022-12-04T14:41:25.507Z,100
2022-12-04T14:47:25.520Z,100
2022-12-04T14:53:25.498Z,100
2022-12-04T14:59:25.518Z,100
2022-12-04T15:05:25.514Z,100
2022-12-04T15:11:25.525Z,100
2022-12-04T15:17:25.495Z,100
2022-12-04T15:23:25.559Z,100
2022-12-04T15:29:25.525Z,100
2022-12-04T15:35:25.514Z,100
2022-12-04T15:41:25.522Z,100
2022-12-04T15:47:25.514Z,100
2022-12-04T15:53:25.467Z,100
2022-12-04T15:59:25.523Z,100
2022-12-04T16:05:25.486Z,100
2022-12-04T16:11:25.494Z,100
2022-12-04T16:17:25.531Z,100
2022-12-04T16:23:25.476Z,100
2022-12-04T16:29:25.493Z,100
2022-12-04T16:35:25.494Z,100
2022-12-04T16:41:25.497Z,100
2022-12-04T16:47:25.480Z,100
2022-12-04T16:53:25.519Z,100
2022-12-04T16:59:25.492Z,100
2022-12-04T17:05:25.477Z,100
2022-12-04T17:11:25.519Z,100
2022-12-04T17:17:25.497Z,100
2022-12-04T17:23:25.488Z,100
2022-12-04T17:29:25.499Z,100
2022-12-04T17:35:25.511Z,100
2022-12-04T17:41:25.505Z,100
2022-12-04T17:47:25.527Z,100
2022-12-04T17:53:25.475Z,100
2022-12-04T17:59:25.714Z,100
2022-12-04T18:05:25.520Z,100
2022-12-04T18:11:25.471Z,100
2022-12-04T18:17:25.494Z,100
2022-12-04T18:23:25.515Z,100
2022-12-04T18:29:25.496Z,100
2022-12-04T18:35:25.508Z,100
2022-12-04T18:41:25.500Z,100
2022-12-04T18:47:25.487Z,100
2022-12-04T18:53:25.504Z,100
2022-12-04T18:59:25.502Z,100
2022-12-04T19:05:25.485Z,100
2022-12-04T19:11:25.466Z,100
2022-12-04T19:17:25.521Z,100
2022-12-04T19:23:25.486Z,100
2022-12-04T19:29:25.473Z,100
2022-12-04T19:35:25.501Z,100
2022-12-04T19:41:25.512Z,100
2022-12-04T19:47:25.513Z,100
2022-12-04T19:53:25.504Z,100
2022-12-04T19:59:25.483Z,100
2022-12-04T20:05:25.450Z,100
2022-12-04T20:11:25.499Z,100
2022-12-04T20:17:25.467Z,100
2022-12-04T20:23:25.478Z,100
2022-12-04T20:29:25.500Z,100
2022-12-04T20:35:25.464Z,100
2022-12-04T20:41:25.476Z,100
2022-12-04T20:47:25.485Z,100
2022-12-04T20:53:25.462Z,100
2022-12-04T20:59:25.488Z,100
2022-12-04T21:05:25.499Z,100
2022-12-04T21:11:25.505Z,100
2022-12-04T21:17:25.470Z,100
2022-12-04T21:23:25.477Z,100
2022-12-04T21:29:25.501Z,100
2022-12-04T21:35:25.435Z,100
2022-12-04T21:41:25.507Z,100
2022-12-04T21:47:25.463Z,100
2022-12-04T21:53:25.451Z,100
2022-12-04T21:59:25.523Z,100
2022-12-04T22:05:25.447Z,100
2022-12-04T22:11:25.451Z,100
2022-12-04T22:17:25.495Z,100
2022-12-04T22:23:25.477Z,100
2022-12-04T22:35:25.483Z,100
2022-12-04T22:41:25.475Z,100
2022-12-04T22:47:25.435Z,100
2022-12-04T22:53:25.482Z,100
2022-12-04T22:59:25.462Z,100
2022-12-04T23:05:25.507Z,100
2022-12-04T23:11:25.486Z,100
2022-12-04T23:17:25.442Z,100
2022-12-04T23:23:25.454Z,100
2022-12-04T23:35:25.442Z,100
2022-12-04T23:41:25.442Z,100
2022-12-04T23:47:25.482Z,100
2022-12-04T23:53:25.438Z,100
2022-12-04T23:59:25.437Z,100
